createdAt,value
2016-05-06T00:00:21.322Z,0
2016-05-06T00:01:21.371Z,0
2016-05-06T00:02:21.406Z,0
2016-05-06T00:03:21.284Z,0
2016-05-06T00:04:21.473Z,0
2016-05-06T00:05:21.507Z,0
2016-05-06T00:06:21.541Z,0
2016-05-06T00:07:21.590Z,0
2016-05-06T00:08:21.609Z,0
2016-05-06T00:09:21.643Z,0
2016-05-06T00:10:21.958Z,0
2016-05-06T00:11:21.726Z,0
2016-05-06T00:12:21.808Z,0
2016-05-06T00:13:21.497Z,0
2016-05-06T00:14:21.672Z,0
2016-05-06T00:15:21.846Z,0
2016-05-06T00:16:21.740Z,0
2016-05-06T00:17:21.929Z,0
2016-05-06T00:18:21.652Z,0
2016-05-06T00:19:22.013Z,0
2016-05-06T00:20:22.047Z,0
2016-05-06T00:21:22.075Z,0
2016-05-06T00:22:22.124Z,0
2016-05-06T00:23:22.143Z,0
2016-05-06T00:24:22.176Z,0
2016-05-06T00:25:22.070Z,0
2016-05-06T00:26:22.088Z,0
2016-05-06T00:27:22.279Z,0
2016-05-06T00:28:22.312Z,0
2016-05-06T00:29:22.346Z,0
2016-05-06T00:30:22.380Z,0
2016-05-06T00:31:22.257Z,0
2016-05-06T00:32:22.292Z,0
2016-05-06T00:33:22.498Z,0
2016-05-06T00:34:22.515Z,0
2016-05-06T00:35:22.254Z,0
2016-05-06T00:36:22.459Z,0
2016-05-06T00:37:22.648Z,0
2016-05-06T00:38:22.667Z,0
2016-05-06T00:39:22.686Z,0
2016-05-06T00:40:23.688Z,0
2016-05-06T00:41:22.597Z,0
2016-05-06T00:42:22.647Z,0
2016-05-06T00:43:22.822Z,0
2016-05-06T00:44:22.558Z,0
2016-05-06T00:45:22.749Z,0
2016-05-06T00:46:22.938Z,0
2016-05-06T00:47:22.816Z,0
2016-05-06T00:48:23.007Z,0
2016-05-06T00:49:23.041Z,0
2016-05-06T00:50:22.777Z,0
2016-05-06T00:51:23.124Z,0
2016-05-06T00:52:22.830Z,0
2016-05-06T00:53:23.036Z,0
2016-05-06T00:54:23.069Z,0
2016-05-06T00:55:23.104Z,0
2016-05-06T00:56:23.138Z,0
2016-05-06T00:57:23.327Z,0
2016-05-06T00:58:23.362Z,0
2016-05-06T00:59:23.395Z,0
2016-05-06T01:00:23.430Z,0
2016-05-06T01:01:23.167Z,0
2016-05-06T01:02:23.341Z,0
2016-05-06T01:03:23.375Z,0
2016-05-06T01:04:23.409Z,0
2016-05-06T01:05:23.599Z,0
2016-05-06T01:06:23.337Z,0
2016-05-06T01:07:23.667Z,0
2016-05-06T01:08:23.717Z,0
2016-05-06T01:09:23.439Z,0
2016-05-06T01:10:23.784Z,0
2016-05-06T01:11:23.803Z,0
2016-05-06T01:12:23.836Z,0
2016-05-06T01:13:23.715Z,0
2016-05-06T01:14:23.920Z,0
2016-05-06T01:15:23.783Z,0
2016-05-06T01:16:23.816Z,0
2016-05-06T01:17:23.710Z,0
2016-05-06T01:18:24.041Z,0
2016-05-06T01:19:24.091Z,0
2016-05-06T01:20:23.983Z,0
2016-05-06T01:21:23.985Z,0
2016-05-06T01:22:24.020Z,0
2016-05-06T01:23:24.085Z,0
2016-05-06T01:24:24.260Z,0
2016-05-06T01:25:24.309Z,0
2016-05-06T01:26:24.328Z,0
2016-05-06T01:27:24.565Z,0
2016-05-06T01:28:24.396Z,0
2016-05-06T01:29:24.429Z,0
2016-05-06T01:30:24.463Z,0
2016-05-06T01:31:24.654Z,0
2016-05-06T01:32:24.375Z,0
2016-05-06T01:33:24.424Z,0
2016-05-06T01:34:24.598Z,0
2016-05-06T01:35:24.634Z,0
2016-05-06T01:36:24.511Z,0
2016-05-06T01:37:24.700Z,0
2016-05-06T01:38:24.437Z,0
2016-05-06T01:39:24.457Z,0
2016-05-06T01:40:24.522Z,0
2016-05-06T01:41:24.836Z,0
2016-05-06T01:42:24.871Z,0
2016-05-06T01:43:24.905Z,0
2016-05-06T01:44:24.798Z,0
2016-05-06T01:45:24.816Z,0
2016-05-06T01:46:25.006Z,0
2016-05-06T01:47:25.041Z,0
2016-05-06T01:48:24.934Z,0
2016-05-06T01:49:25.124Z,0
2016-05-06T01:50:39.313Z,0
2016-05-06T01:51:25.177Z,0
2016-05-06T01:52:25.226Z,0
2016-05-06T01:53:25.119Z,0
2016-05-06T01:54:25.277Z,0
2016-05-06T01:55:25.219Z,0
2016-05-06T01:56:25.361Z,0
2016-05-06T01:57:25.239Z,0
2016-05-06T01:58:25.273Z,0
2016-05-06T01:59:25.323Z,0
2016-05-06T02:00:25.357Z,0
2016-05-06T02:01:25.531Z,0
2016-05-06T02:02:25.424Z,0
2016-05-06T02:03:25.598Z,0
2016-05-06T02:04:25.633Z,0
2016-05-06T02:05:25.651Z,0
2016-05-06T02:06:25.701Z,0
2016-05-06T02:07:25.765Z,0
2016-05-06T02:08:25.768Z,0
2016-05-06T02:09:25.803Z,0
2016-05-06T02:10:25.711Z,0
2016-05-06T02:11:25.401Z,0
2016-05-06T02:12:25.920Z,0
2016-05-06T02:13:25.657Z,0
2016-05-06T02:14:25.972Z,0
2016-05-06T02:15:26.006Z,0
2016-05-06T02:16:25.900Z,0
2016-05-06T02:17:25.778Z,0
2016-05-06T02:18:26.139Z,0
2016-05-06T02:19:26.142Z,0
2016-05-06T02:20:26.020Z,0
2016-05-06T02:21:26.241Z,0
2016-05-06T02:22:26.260Z,0
2016-05-06T02:23:26.281Z,0
2016-05-06T02:24:26.315Z,0
2016-05-06T02:25:27.318Z,0
2016-05-06T02:26:26.399Z,0
2016-05-06T02:27:26.433Z,0
2016-05-06T02:28:26.295Z,0
2016-05-06T02:29:26.485Z,0
2016-05-06T02:30:26.535Z,0
2016-05-06T02:31:26.412Z,0
2016-05-06T02:32:26.446Z,0
2016-05-06T02:33:26.621Z,0
2016-05-06T02:34:26.670Z,0
2016-05-06T02:35:26.689Z,0
2016-05-06T02:36:26.754Z,0
2016-05-06T02:37:26.758Z,0
2016-05-06T02:38:26.806Z,0
2016-05-06T02:39:26.825Z,0
2016-05-06T02:40:26.577Z,0
2016-05-06T02:41:26.954Z,0
2016-05-06T02:42:26.770Z,0
2016-05-06T02:43:26.805Z,0
2016-05-06T02:44:27.010Z,0
2016-05-06T02:45:27.028Z,0
2016-05-06T02:46:27.078Z,0
2016-05-06T02:47:27.096Z,0
2016-05-06T02:48:27.145Z,0
2016-05-06T02:49:27.179Z,0
2016-05-06T02:50:27.199Z,0
2016-05-06T02:51:27.248Z,0
2016-05-06T02:52:27.281Z,0
2016-05-06T02:53:27.316Z,0
2016-05-06T02:54:27.348Z,0
2016-05-06T02:55:28.165Z,0
2016-05-06T02:56:27.417Z,0
2016-05-06T02:57:27.451Z,0
2016-05-06T02:58:27.173Z,0
2016-05-06T02:59:27.520Z,0
2016-05-06T03:00:27.397Z,0
2016-05-06T03:01:27.430Z,0
2016-05-06T03:02:27.621Z,0
2016-05-06T03:03:27.655Z,0
2016-05-06T03:04:27.533Z,0
2016-05-06T03:05:27.550Z,0
2016-05-06T03:06:27.756Z,0
2016-05-06T03:07:27.478Z,0
2016-05-06T03:08:27.824Z,0
2016-05-06T03:09:27.702Z,0
2016-05-06T03:10:27.736Z,0
2016-05-06T03:11:27.927Z,0
2016-05-06T03:12:27.647Z,0
2016-05-06T03:13:27.979Z,0
2016-05-06T03:14:28.027Z,0
2016-05-06T03:15:27.891Z,0
2016-05-06T03:16:28.080Z,0
2016-05-06T03:17:28.115Z,0
2016-05-06T03:18:28.023Z,0
2016-05-06T03:19:28.198Z,0
2016-05-06T03:20:28.232Z,0
2016-05-06T03:21:28.093Z,0
2016-05-06T03:22:28.284Z,0
2016-05-06T03:23:28.177Z,0
2016-05-06T03:24:28.227Z,0
2016-05-06T03:25:28.261Z,0
2016-05-06T03:26:27.982Z,0
2016-05-06T03:27:28.454Z,0
2016-05-06T03:28:28.503Z,0
2016-05-06T03:29:28.225Z,0
2016-05-06T03:30:28.556Z,0
2016-05-06T03:31:28.433Z,0
2016-05-06T03:32:28.655Z,0
2016-05-06T03:33:28.658Z,0
2016-05-06T03:34:28.535Z,0
2016-05-06T03:35:28.741Z,0
2016-05-06T03:36:28.759Z,0
2016-05-06T03:37:28.794Z,0
2016-05-06T03:38:28.842Z,0
2016-05-06T03:39:28.877Z,0
2016-05-06T03:40:28.598Z,0
2016-05-06T03:41:29.189Z,5
2016-05-06T03:42:28.830Z,5
2016-05-06T03:43:29.056Z,5
2016-05-06T03:44:29.025Z,5
2016-05-06T03:45:29.044Z,5
2016-05-06T03:46:29.110Z,5
2016-05-06T03:47:28.972Z,5
2016-05-06T03:48:28.833Z,5
2016-05-06T03:49:29.196Z,5
2016-05-06T03:50:29.229Z,5
2016-05-06T03:51:29.263Z,5
2016-05-06T03:52:29.282Z,5
2016-05-06T03:53:29.331Z,5
2016-05-06T03:54:29.350Z,10
2016-05-06T03:55:29.493Z,10
2016-05-06T03:56:29.496Z,10
2016-05-06T03:57:29.295Z,10
2016-05-06T03:58:29.345Z,10
2016-05-06T03:59:29.535Z,15
2016-05-06T04:00:29.554Z,15
2016-05-06T04:01:29.603Z,15
2016-05-06T04:02:29.636Z,15
2016-05-06T04:03:29.499Z,15
2016-05-06T04:04:29.533Z,15
2016-05-06T04:05:29.581Z,20
2016-05-06T04:06:29.773Z,20
2016-05-06T04:07:29.651Z,20
2016-05-06T04:08:29.825Z,20
2016-05-06T04:09:29.717Z,20
2016-05-06T04:10:29.596Z,25
2016-05-06T04:11:30.316Z,25
2016-05-06T04:12:29.961Z,25
2016-05-06T04:13:29.994Z,25
2016-05-06T04:14:29.888Z,25
2016-05-06T04:15:30.063Z,25
2016-05-06T04:16:30.096Z,30
2016-05-06T04:17:29.974Z,30
2016-05-06T04:18:30.007Z,30
2016-05-06T04:19:30.214Z,30
2016-05-06T04:20:30.076Z,30
2016-05-06T04:21:30.110Z,30
2016-05-06T04:22:30.299Z,35
2016-05-06T04:23:30.334Z,35
2016-05-06T04:24:30.196Z,35
2016-05-06T04:25:30.432Z,40
2016-05-06T04:26:29.982Z,40
2016-05-06T04:27:30.470Z,40
2016-05-06T04:28:30.519Z,45
2016-05-06T04:29:30.553Z,45
2016-05-06T04:30:30.556Z,50
2016-05-06T04:31:30.637Z,55
2016-05-06T04:32:30.640Z,55
2016-05-06T04:33:30.361Z,65
2016-05-06T04:34:30.551Z,70
2016-05-06T04:35:30.570Z,70
2016-05-06T04:36:30.775Z,75
2016-05-06T04:37:30.637Z,80
2016-05-06T04:38:30.842Z,80
2016-05-06T04:39:30.877Z,80
2016-05-06T04:40:30.755Z,85
2016-05-06T04:41:31.023Z,80
2016-05-06T04:42:30.822Z,80
2016-05-06T04:43:31.028Z,80
2016-05-06T04:44:31.062Z,75
2016-05-06T04:45:31.080Z,75
2016-05-06T04:46:30.958Z,80
2016-05-06T04:47:31.180Z,80
2016-05-06T04:48:31.183Z,75
2016-05-06T04:49:31.060Z,75
2016-05-06T04:50:31.250Z,75
2016-05-06T04:51:31.299Z,75
2016-05-06T04:52:31.005Z,75
2016-05-06T04:53:31.196Z,75
2016-05-06T04:54:30.918Z,75
2016-05-06T04:55:31.420Z,75
2016-05-06T04:56:31.313Z,75
2016-05-06T04:57:31.488Z,80
2016-05-06T04:58:31.537Z,85
2016-05-06T04:59:31.556Z,85
2016-05-06T05:00:31.589Z,85
2016-05-06T05:01:31.640Z,85
2016-05-06T05:02:31.657Z,85
2016-05-06T05:03:31.691Z,85
2016-05-06T05:04:31.741Z,85
2016-05-06T05:05:31.603Z,85
2016-05-06T05:06:31.668Z,90
2016-05-06T05:07:31.827Z,90
2016-05-06T05:08:31.862Z,95
2016-05-06T05:09:31.895Z,95
2016-05-06T05:10:32.124Z,95
2016-05-06T05:11:32.048Z,105
2016-05-06T05:12:32.114Z,110
2016-05-06T05:13:32.211Z,110
2016-05-06T05:14:32.292Z,105
2016-05-06T05:15:32.202Z,105
2016-05-06T05:16:32.238Z,105
2016-05-06T05:17:32.289Z,105
2016-05-06T05:18:32.511Z,100
2016-05-06T05:19:32.546Z,95
2016-05-06T05:20:32.623Z,95
2016-05-06T05:21:32.507Z,95
2016-05-06T05:22:32.516Z,90
2016-05-06T05:23:32.743Z,90
2016-05-06T05:24:32.768Z,90
2016-05-06T05:25:32.821Z,90
2016-05-06T05:26:32.827Z,95
2016-05-06T05:27:32.878Z,100
2016-05-06T05:28:32.931Z,105
2016-05-06T05:29:32.966Z,110
2016-05-06T05:30:32.830Z,115
2016-05-06T05:31:32.881Z,115
2016-05-06T05:32:33.071Z,115
2016-05-06T05:33:33.106Z,120
2016-05-06T05:34:33.000Z,120
2016-05-06T05:35:32.848Z,125
2016-05-06T05:36:33.193Z,125
2016-05-06T05:37:32.932Z,130
2016-05-06T05:38:33.138Z,130
2016-05-06T05:39:33.157Z,130
2016-05-06T05:40:33.191Z,135
2016-05-06T05:41:33.319Z,130
2016-05-06T05:42:33.415Z,130
2016-05-06T05:43:33.449Z,130
2016-05-06T05:44:33.483Z,135
2016-05-06T05:45:33.516Z,135
2016-05-06T05:46:33.551Z,135
2016-05-06T05:47:33.600Z,135
2016-05-06T05:48:33.619Z,135
2016-05-06T05:49:33.496Z,135
2016-05-06T05:50:33.546Z,135
2016-05-06T05:51:33.595Z,140
2016-05-06T05:52:33.770Z,140
2016-05-06T05:53:33.788Z,140
2016-05-06T05:54:33.838Z,140
2016-05-06T05:55:33.871Z,145
2016-05-06T05:56:33.906Z,140
2016-05-06T05:57:33.924Z,145
2016-05-06T05:58:33.833Z,145
2016-05-06T05:59:34.054Z,145
2016-05-06T06:00:34.557Z,145
2016-05-06T06:01:33.778Z,145
2016-05-06T06:02:33.953Z,145
2016-05-06T06:03:34.143Z,145
2016-05-06T06:04:34.036Z,145
2016-05-06T06:05:34.211Z,145
2016-05-06T06:06:34.261Z,145
2016-05-06T06:07:33.983Z,145
2016-05-06T06:08:34.328Z,145
2016-05-06T06:09:34.597Z,145
2016-05-06T06:10:34.396Z,145
2016-05-06T06:11:34.649Z,140
2016-05-06T06:12:34.464Z,140
2016-05-06T06:13:34.499Z,140
2016-05-06T06:14:34.548Z,140
2016-05-06T06:15:34.566Z,145
2016-05-06T06:16:34.599Z,150
2016-05-06T06:17:34.494Z,145
2016-05-06T06:18:34.668Z,135
2016-05-06T06:19:34.546Z,135
2016-05-06T06:20:34.439Z,140
2016-05-06T06:21:34.816Z,130
2016-05-06T06:22:34.663Z,130
2016-05-06T06:23:34.853Z,125
2016-05-06T06:24:34.779Z,125
2016-05-06T06:25:34.624Z,130
2016-05-06T06:26:35.049Z,135
2016-05-06T06:27:34.989Z,135
2016-05-06T06:28:35.023Z,140
2016-05-06T06:29:35.275Z,140
2016-05-06T06:30:34.951Z,145
2016-05-06T06:31:35.140Z,170
2016-05-06T06:32:35.189Z,150
2016-05-06T06:33:35.209Z,145
2016-05-06T06:34:35.242Z,140
2016-05-06T06:35:35.291Z,140
2016-05-06T06:36:35.326Z,140
2016-05-06T06:37:35.188Z,145
2016-05-06T06:38:35.222Z,145
2016-05-06T06:39:35.412Z,150
2016-05-06T06:40:35.477Z,150
2016-05-06T06:41:36.324Z,155
2016-05-06T06:42:35.216Z,170
2016-05-06T06:43:35.563Z,165
2016-05-06T06:44:35.597Z,160
2016-05-06T06:45:35.631Z,160
2016-05-06T06:46:35.681Z,160
2016-05-06T06:47:35.433Z,170
2016-05-06T06:48:35.593Z,160
2016-05-06T06:49:35.782Z,160
2016-05-06T06:50:35.816Z,160
2016-05-06T06:51:35.694Z,160
2016-05-06T06:52:35.900Z,160
2016-05-06T06:53:35.762Z,160
2016-05-06T06:55:04.280Z,165
2016-05-06T06:56:36.723Z,165
2016-05-06T06:57:50.257Z,165
2016-05-06T06:59:36.138Z,165
2016-05-06T07:00:36.015Z,165
2016-05-06T07:01:36.081Z,165
2016-05-06T07:02:36.599Z,170
2016-05-06T07:03:36.289Z,170
2016-05-06T07:04:36.306Z,170
2016-05-06T07:05:36.356Z,170
2016-05-06T07:06:36.391Z,170
2016-05-06T07:07:36.269Z,175
2016-05-06T07:08:36.302Z,180
2016-05-06T07:09:36.321Z,185
2016-05-06T07:10:36.386Z,180
2016-05-06T07:11:37.263Z,180
2016-05-06T07:12:36.594Z,175
2016-05-06T07:13:36.488Z,175
2016-05-06T07:14:36.677Z,175
2016-05-06T07:15:36.711Z,175
2016-05-06T07:16:36.589Z,180
2016-05-06T07:17:36.639Z,180
2016-05-06T07:18:36.814Z,185
2016-05-06T07:19:36.847Z,180
2016-05-06T07:20:36.897Z,185
2016-05-06T07:21:36.774Z,180
2016-05-06T07:22:36.965Z,190
2016-05-06T07:23:37.145Z,185
2016-05-06T07:24:37.037Z,185
2016-05-06T07:25:36.931Z,185
2016-05-06T07:26:36.809Z,190
2016-05-06T07:27:36.999Z,230
2016-05-06T07:28:37.189Z,220
2016-05-06T07:29:37.223Z,190
2016-05-06T07:30:36.960Z,195
2016-05-06T07:31:37.292Z,195
2016-05-06T07:32:37.326Z,195
2016-05-06T07:33:37.047Z,195
2016-05-06T07:34:37.408Z,205
2016-05-06T07:35:37.427Z,240
2016-05-06T07:36:37.476Z,275
2016-05-06T07:37:37.510Z,325
2016-05-06T07:38:37.560Z,520
2016-05-06T07:39:37.578Z,640
2016-05-06T07:40:37.472Z,560
2016-05-06T07:41:37.771Z,555
2016-05-06T07:42:37.539Z,380
2016-05-06T07:43:37.574Z,275
2016-05-06T07:44:37.763Z,350
2016-05-06T07:45:37.641Z,385
2016-05-06T07:46:37.847Z,595
2016-05-06T07:47:37.880Z,745
2016-05-06T07:48:37.931Z,725
2016-05-06T07:49:37.965Z,950
2016-05-06T07:50:37.982Z,1100
2016-05-06T07:51:37.876Z,1180
2016-05-06T07:52:37.910Z,1225
2016-05-06T07:53:38.131Z,1255
2016-05-06T07:54:38.149Z,1325
2016-05-06T07:55:38.027Z,1375
2016-05-06T07:56:38.280Z,1385
2016-05-06T07:57:38.267Z,1380
2016-05-06T07:58:38.177Z,1375
2016-05-06T07:59:38.038Z,1350
2016-05-06T08:00:38.384Z,1310
2016-05-06T08:01:38.293Z,1200
2016-05-06T08:02:38.484Z,1235
2016-05-06T08:03:38.345Z,1245
2016-05-06T08:04:38.380Z,1260
2016-05-06T08:05:38.601Z,1240
2016-05-06T08:06:38.479Z,1285
2016-05-06T08:07:38.669Z,1310
2016-05-06T08:08:38.719Z,1365
2016-05-06T08:09:38.456Z,1445
2016-05-06T08:10:38.661Z,1430
2016-05-06T08:11:39.039Z,1380
2016-05-06T08:12:38.729Z,1340
2016-05-06T08:13:38.951Z,1290
2016-05-06T08:14:38.969Z,1255
2016-05-06T08:15:38.847Z,1260
2016-05-06T08:16:38.912Z,1230
2016-05-06T08:17:39.118Z,1320
2016-05-06T08:18:39.168Z,1425
2016-05-06T08:19:39.201Z,1465
2016-05-06T08:20:39.110Z,1505
2016-05-06T08:21:39.129Z,1465
2016-05-06T08:22:38.866Z,1425
2016-05-06T08:23:39.212Z,1385
2016-05-06T08:24:39.418Z,1345
2016-05-06T08:25:39.468Z,1310
2016-05-06T08:26:39.782Z,1280
2016-05-06T08:27:39.395Z,1250
2016-05-06T08:28:39.601Z,1240
2016-05-06T08:29:39.634Z,1280
2016-05-06T08:30:39.684Z,1340
2016-05-06T08:31:39.734Z,1385
2016-05-06T08:32:39.784Z,1445
2016-05-06T08:33:39.817Z,1490
2016-05-06T08:34:39.554Z,1455
2016-05-06T08:35:39.964Z,1510
2016-05-06T08:36:39.809Z,1550
2016-05-06T08:37:40.000Z,1570
2016-05-06T08:38:39.892Z,1580
2016-05-06T08:39:41.975Z,1575
2016-05-06T08:40:40.008Z,1575
2016-05-06T08:41:40.058Z,1565
2016-05-06T08:42:40.232Z,1585
2016-05-06T08:43:40.125Z,1610
2016-05-06T08:44:40.331Z,1635
2016-05-06T08:45:40.224Z,1665
2016-05-06T08:46:40.430Z,1655
2016-05-06T08:47:40.480Z,1695
2016-05-06T08:48:40.373Z,1670
2016-05-06T08:49:40.407Z,1640
2016-05-06T08:50:40.597Z,1640
2016-05-06T08:51:40.677Z,1620
2016-05-06T08:52:40.556Z,1410
2016-05-06T08:53:40.746Z,750
2016-05-06T08:54:40.811Z,490
2016-05-06T08:55:40.704Z,425
2016-05-06T08:56:41.379Z,515
2016-05-06T08:57:40.944Z,270
2016-05-06T08:58:40.994Z,505
2016-05-06T08:59:41.012Z,485
2016-05-06T09:00:41.093Z,360
2016-05-06T09:01:41.126Z,560
2016-05-06T09:02:41.005Z,360
2016-05-06T09:03:41.210Z,485
2016-05-06T09:04:41.135Z,405
2016-05-06T09:05:41.309Z,400
2016-05-06T09:06:41.187Z,270
2016-05-06T09:07:41.424Z,270
2016-05-06T09:08:41.286Z,350
2016-05-06T09:09:41.164Z,430
2016-05-06T09:10:41.370Z,570
2016-05-06T09:11:41.279Z,1000
2016-05-06T09:12:41.609Z,950
2016-05-06T09:13:41.659Z,1050
2016-05-06T09:14:41.693Z,1505
2016-05-06T09:15:41.586Z,1755
2016-05-06T09:16:41.777Z,1780
2016-05-06T09:17:41.670Z,1840
2016-05-06T09:18:41.875Z,1855
2016-05-06T09:19:41.910Z,1850
2016-05-06T09:20:41.990Z,1840
2016-05-06T09:21:42.025Z,1840
2016-05-06T09:22:42.043Z,1780
2016-05-06T09:23:41.935Z,1785
2016-05-06T09:24:41.986Z,1810
2016-05-06T09:25:42.020Z,1720
2016-05-06T09:26:42.241Z,1755
2016-05-06T09:27:42.260Z,1810
2016-05-06T09:28:42.309Z,1855
2016-05-06T09:29:42.359Z,1855
2016-05-06T09:30:42.236Z,1885
2016-05-06T09:31:42.442Z,1900
2016-05-06T09:32:42.492Z,1885
2016-05-06T09:33:42.557Z,1790
2016-05-06T09:34:42.576Z,1790
2016-05-06T09:35:42.484Z,1700
2016-05-06T09:36:42.534Z,1755
2016-05-06T09:37:42.584Z,1780
2016-05-06T09:38:42.617Z,1745
2016-05-06T09:39:42.823Z,1760
2016-05-06T09:40:42.857Z,1730
2016-05-06T09:41:42.625Z,1730
2016-05-06T09:42:42.956Z,1810
2016-05-06T09:43:43.006Z,1820
2016-05-06T09:44:43.056Z,1865
2016-05-06T09:45:42.980Z,1875
2016-05-06T09:46:42.998Z,1890
2016-05-06T09:47:43.189Z,1895
2016-05-06T09:48:43.097Z,1885
2016-05-06T09:49:43.146Z,1895
2016-05-06T09:50:43.025Z,1920
2016-05-06T09:51:43.230Z,1905
2016-05-06T09:52:43.280Z,1895
2016-05-06T09:53:43.314Z,1870
2016-05-06T09:54:43.519Z,1835
2016-05-06T09:55:43.585Z,1825
2016-05-06T09:56:43.463Z,1835
2016-05-06T09:57:43.668Z,1875
2016-05-06T09:58:43.718Z,1910
2016-05-06T09:59:43.610Z,1935
2016-05-06T10:00:43.661Z,1935
2016-05-06T10:01:43.851Z,1970
2016-05-06T10:02:43.462Z,1375
2016-05-06T10:03:43.810Z,1045
2016-05-06T10:04:44.015Z,1825
2016-05-06T10:05:44.095Z,1875
2016-05-06T10:06:44.115Z,1900
2016-05-06T10:07:44.164Z,1905
2016-05-06T10:08:44.245Z,1885
2016-05-06T10:09:44.263Z,1880
2016-05-06T10:10:44.172Z,1880
2016-05-06T10:11:45.487Z,1895
2016-05-06T10:12:44.256Z,1895
2016-05-06T10:13:44.306Z,1885
2016-05-06T10:14:44.495Z,1905
2016-05-06T10:15:44.561Z,1880
2016-05-06T10:16:44.438Z,1905
2016-05-06T10:17:44.644Z,1880
2016-05-06T10:18:44.709Z,1885
2016-05-06T10:19:44.743Z,1860
2016-05-06T10:20:44.497Z,1785
2016-05-06T10:21:44.858Z,1810
2016-05-06T10:22:44.892Z,1885
2016-05-06T10:23:44.800Z,1935
2016-05-06T10:24:45.006Z,1985
2016-05-06T10:25:45.056Z,1955
2016-05-06T10:26:44.980Z,1850
2016-05-06T10:27:45.140Z,1905
2016-05-06T10:28:45.018Z,1880
2016-05-06T10:29:45.254Z,1885
2016-05-06T10:30:45.319Z,1830
2016-05-06T10:31:45.338Z,1925
2016-05-06T10:32:45.232Z,1885
2016-05-06T10:33:45.437Z,1820
2016-05-06T10:34:45.502Z,1800
2016-05-06T10:35:45.551Z,1780
2016-05-06T10:36:45.585Z,1765
2016-05-06T10:37:45.667Z,1745
2016-05-06T10:38:45.700Z,1725
2016-05-06T10:39:45.578Z,1680
2016-05-06T10:40:45.659Z,1685
2016-05-06T10:41:45.693Z,1395
2016-05-06T10:42:45.898Z,1500
2016-05-06T10:43:45.948Z,1495
2016-05-06T10:44:45.826Z,1635
2016-05-06T10:45:46.047Z,1630
2016-05-06T10:46:46.097Z,1645
2016-05-06T10:47:46.147Z,1680
2016-05-06T10:48:46.180Z,1675
2016-05-06T10:49:46.090Z,1730
2016-05-06T10:50:46.514Z,1790
2016-05-06T10:51:46.188Z,1825
2016-05-06T10:52:46.253Z,1830
2016-05-06T10:53:46.288Z,1905
2016-05-06T10:54:46.478Z,1795
2016-05-06T10:55:46.544Z,1885
2016-05-06T10:56:46.530Z,1920
2016-05-06T10:57:46.502Z,1920
2016-05-06T10:58:46.691Z,1940
2016-05-06T10:59:46.742Z,2005
2016-05-06T11:00:46.790Z,2030
2016-05-06T11:01:46.685Z,2070
2016-05-06T11:02:46.734Z,2035
2016-05-06T11:03:46.799Z,2035
2016-05-06T11:04:46.832Z,2005
2016-05-06T11:05:47.038Z,1990
2016-05-06T11:06:47.088Z,2005
2016-05-06T11:07:47.138Z,1990
2016-05-06T11:08:47.203Z,1975
2016-05-06T11:09:47.268Z,1930
2016-05-06T11:10:47.318Z,1925
2016-05-06T11:11:48.509Z,1910
2016-05-06T11:12:47.399Z,1910
2016-05-06T11:13:47.448Z,1925
2016-05-06T11:14:47.373Z,1950
2016-05-06T11:15:47.407Z,1940
2016-05-06T11:16:47.440Z,1935
2016-05-06T11:17:47.662Z,1920
2016-05-06T11:18:47.712Z,1875
2016-05-06T11:19:47.777Z,1845
2016-05-06T11:20:47.655Z,1850
2016-05-06T11:21:47.720Z,1890
2016-05-06T11:22:47.942Z,1940
2016-05-06T11:23:47.819Z,1915
2016-05-06T11:24:47.868Z,1865
2016-05-06T11:25:48.075Z,1840
2016-05-06T11:26:48.186Z,1845
2016-05-06T11:27:48.189Z,1880
2016-05-06T11:28:48.239Z,1905
2016-05-06T11:29:48.288Z,1930
2016-05-06T11:30:48.213Z,1955
2016-05-06T11:31:48.388Z,1980
2016-05-06T11:32:48.437Z,1950
2016-05-06T11:33:48.486Z,1920
2016-05-06T11:34:48.427Z,1905
2016-05-06T11:35:48.460Z,1895
2016-05-06T11:36:48.667Z,1920
2016-05-06T11:37:48.388Z,1935
2016-05-06T11:38:48.749Z,1965
2016-05-06T11:39:48.832Z,1965
2016-05-06T11:40:48.396Z,1940
2016-05-06T11:41:48.915Z,1925
2016-05-06T11:42:48.995Z,1905
2016-05-06T11:43:50.560Z,1895
2016-05-06T11:44:49.079Z,1930
2016-05-06T11:45:48.972Z,1500
2016-05-06T11:46:49.021Z,1490
2016-05-06T11:47:49.228Z,1495
2016-05-06T11:48:49.136Z,1745
2016-05-06T11:49:49.201Z,1660
2016-05-06T11:50:49.236Z,1680
2016-05-06T11:51:49.129Z,1610
2016-05-06T11:52:49.491Z,1690
2016-05-06T11:53:49.540Z,1765
2016-05-06T11:54:49.590Z,1820
2016-05-06T11:55:49.499Z,1810
2016-05-06T11:56:49.720Z,1595
2016-05-06T11:57:49.754Z,1655
2016-05-06T11:58:49.836Z,1990
2016-05-06T11:59:49.697Z,1940
2016-05-06T12:00:49.762Z,1840
2016-05-06T12:01:49.969Z,1715
2016-05-06T12:02:49.893Z,1560
2016-05-06T12:03:50.083Z,1440
2016-05-06T12:04:50.116Z,1510
2016-05-06T12:05:50.167Z,1600
2016-05-06T12:06:49.935Z,1740
2016-05-06T12:07:50.296Z,1925
2016-05-06T12:08:50.175Z,2110
2016-05-06T12:09:50.224Z,2140
2016-05-06T12:10:50.461Z,2090
2016-05-06T12:11:50.698Z,2040
2016-05-06T12:12:50.388Z,2005
2016-05-06T12:13:50.438Z,1945
2016-05-06T12:14:50.643Z,1950
2016-05-06T12:15:50.584Z,1955
2016-05-06T12:16:50.773Z,1955
2016-05-06T12:17:50.652Z,1955
2016-05-06T12:18:50.764Z,1935
2016-05-06T12:19:50.782Z,1965
2016-05-06T12:20:50.973Z,1985
2016-05-06T12:21:51.037Z,1985
2016-05-06T12:22:51.103Z,1970
2016-05-06T12:23:50.825Z,1980
2016-05-06T12:24:51.030Z,2000
2016-05-06T12:25:51.251Z,1995
2016-05-06T12:26:51.348Z,1890
2016-05-06T12:27:51.226Z,1905
2016-05-06T12:28:51.400Z,1950
2016-05-06T12:29:51.465Z,1945
2016-05-06T12:30:51.203Z,1575
2016-05-06T12:31:51.424Z,1965
2016-05-06T12:32:51.645Z,1910
2016-05-06T12:33:51.695Z,1910
2016-05-06T12:34:51.729Z,1940
2016-05-06T12:35:51.778Z,1945
2016-05-06T12:36:51.843Z,1900
2016-05-06T12:37:51.894Z,1850
2016-05-06T12:38:51.802Z,1885
2016-05-06T12:39:52.007Z,1925
2016-05-06T12:40:52.058Z,1065
2016-05-06T12:41:51.810Z,670
2016-05-06T12:42:52.000Z,490
2016-05-06T12:43:52.222Z,890
2016-05-06T12:44:52.709Z,400
2016-05-06T12:45:52.321Z,455
2016-05-06T12:46:52.386Z,885
2016-05-06T12:47:52.123Z,485
2016-05-06T12:48:52.470Z,495
2016-05-06T12:49:52.379Z,505
2016-05-06T12:50:52.585Z,405
2016-05-06T12:51:52.634Z,1030
2016-05-06T12:52:52.528Z,1845
2016-05-06T12:53:52.733Z,985
2016-05-06T12:54:58.379Z,1820
2016-05-06T12:55:52.848Z,1830
2016-05-06T12:56:53.006Z,1905
2016-05-06T12:57:52.947Z,1955
2016-05-06T12:58:52.997Z,1920
2016-05-06T12:59:53.062Z,1895
2016-05-06T13:00:53.095Z,1885
2016-05-06T13:01:53.161Z,1910
2016-05-06T13:02:53.055Z,1895
2016-05-06T13:03:53.103Z,1855
2016-05-06T13:04:53.372Z,1750
2016-05-06T13:05:54.078Z,1725
2016-05-06T13:06:53.252Z,1750
2016-05-06T13:07:55.568Z,1790
2016-05-06T13:08:58.041Z,1795
2016-05-06T13:09:53.479Z,1810
2016-05-06T13:10:53.607Z,1725
2016-05-06T13:11:53.266Z,1730
2016-05-06T13:12:53.409Z,1745
2016-05-06T13:13:53.771Z,1820
2016-05-06T13:14:53.837Z,1840
2016-05-06T13:15:53.886Z,1860
2016-05-06T13:16:53.779Z,1885
2016-05-06T13:17:54.001Z,1815
2016-05-06T13:18:53.894Z,1815
2016-05-06T13:19:54.101Z,1720
2016-05-06T13:20:54.165Z,1655
2016-05-06T13:21:54.418Z,1585
2016-05-06T13:22:54.249Z,1600
2016-05-06T13:23:54.174Z,1555
2016-05-06T13:24:54.364Z,1540
2016-05-06T13:25:54.412Z,1540
2016-05-06T13:26:55.337Z,1540
2016-05-06T13:27:54.528Z,1595
2016-05-06T13:28:54.578Z,1605
2016-05-06T13:29:54.502Z,1190
2016-05-06T13:30:54.676Z,1320
2016-05-06T13:31:54.742Z,855
2016-05-06T13:32:54.792Z,405
2016-05-06T13:33:54.841Z,445
2016-05-06T13:34:54.734Z,385
2016-05-06T13:35:54.955Z,245
2016-05-06T13:36:54.834Z,510
2016-05-06T13:37:54.866Z,240
2016-05-06T13:38:55.088Z,245
2016-05-06T13:39:55.138Z,315
2016-05-06T13:40:55.188Z,240
2016-05-06T13:41:55.330Z,215
2016-05-06T13:42:55.130Z,310
2016-05-06T13:43:55.180Z,315
2016-05-06T13:44:55.371Z,305
2016-05-06T13:45:55.420Z,325
2016-05-06T13:46:55.516Z,330
2016-05-06T13:47:55.534Z,815
2016-05-06T13:48:55.568Z,785
2016-05-06T13:49:55.477Z,210
2016-05-06T13:50:55.526Z,690
2016-05-06T13:51:55.717Z,1390
2016-05-06T13:52:55.782Z,750
2016-05-06T13:53:55.660Z,790
2016-05-06T13:54:55.710Z,1185
2016-05-06T13:55:55.900Z,1220
2016-05-06T13:56:56.075Z,625